ART,Max TemperatureF,Mean TemperatureF,Min TemperatureF,Max Dew PointF,MeanDew PointF,Min DewpointF,Max Humidity, Mean Humidity, Min Humidity, Max Sea Level PressureIn, Mean Sea Level PressureIn, Min Sea Level PressureIn, Max VisibilityMiles, Mean VisibilityMiles, Min VisibilityMiles, Max Wind SpeedMPH, Mean Wind SpeedMPH, Max Gust SpeedMPH,PrecipitationIn, CloudCover, Events, WindDirDegrees
2013-1-1,70,59,48,48,46,45,87,59,29,30.15,30.07,29.95,6,6,6,20,14,30,0.00,2,,228
2013-1-2,76,62,48,52,48,46,88,59,26,30.20,30.14,30.06,6,6,5,12,5,,0.00,,,113
2013-1-3,80,70,60,57,54,50,77,54,30,30.13,30.06,29.95,6,6,6,14,9,,0.00,1,,53
2013-1-4,90,78,67,72,65,57,100,62,36,30.01,29.91,29.80,7,6,3,31,8,40,0.59,6,Rain-Thunderstorm,58
2013-1-5,85,76,67,72,68,66,94,78,58,29.90,29.77,29.68,6,6,4,16,9,,0.03,5,Rain-Thunderstorm,352
2013-1-6,87,75,63,70,66,63,94,72,46,29.77,29.70,29.59,6,5,2,8,5,,0.00,,Fog,299
2013-1-7,89,81,68,72,68,63,88,66,41,29.74,29.63,29.56,6,6,5,16,7,,0.00,3,Rain,317
2013-1-8,85,72,60,70,64,57,94,71,45,29.92,29.82,29.74,6,6,6,12,6,,0.00,6,,121
2013-1-9,86,76,66,68,63,55,94,65,34,30.06,30.02,29.92,6,6,3,14,8,,0.00,4,,102
2013-1-10,91,82,72,64,60,55,78,48,25,30.13,30.07,30.04,6,6,6,12,8,,0.00,,,61
2013-1-11,89,80,71,70,58,46,83,50,18,30.06,29.99,29.89,6,6,6,14,7,,0.00,,,50
2013-1-12,86,80,73,70,60,55,83,51,32,29.95,29.93,29.89,6,6,6,14,8,,0.00,,,58
2013-1-13,89,77,65,66,62,55,94,63,27,30.04,29.99,29.95,6,5,2,12,4,,0.00,1,Fog,80
2013-1-14,89,78,66,66,62,54,88,57,29,30.04,29.99,29.92,6,6,6,14,4,,0.00,,,76
2013-1-15,88,80,71,70,64,55,88,60,24,30.04,29.89,29.77,6,6,6,12,7,,0.00,,,64
2013-1-16,90,79,68,70,66,59,100,70,33,29.83,29.78,29.71,6,5,2,15,6,25,0.08,7,Rain-Thunderstorm,55
2013-1-17,87,77,67,70,66,61,100,74,46,30.01,29.90,29.80,6,6,4,16,9,23,0.00,3,Rain,125
2013-1-18,83,72,62,66,63,59,94,74,48,30.06,30.01,29.95,6,6,6,14,7,,0.00,3,,182
2013-1-19,78,70,63,66,61,54,94,75,37,30.18,30.10,30.01,6,6,6,21,12,,0.00,7,Rain,153
2013-1-20,80,68,56,63,57,54,94,69,36,30.26,30.20,30.15,6,6,4,16,8,,0.00,5,Rain,130
2013-1-21,82,70,59,63,58,54,88,62,29,30.24,30.17,30.09,6,6,6,13,8,,0.00,1,,81
2013-1-22,86,76,67,66,62,55,88,59,26,30.13,30.05,29.95,6,6,6,13,8,,0.00,1,,67
2013-1-23,92,78,64,72,67,63,100,67,35,29.98,29.83,29.68,6,5,2,26,5,34,0.00,2,Fog-Rain,37
2013-1-24,96,82,66,72,67,61,88,60,34,29.71,29.57,29.42,6,6,3,25,8,38,0.00,2,,317
2013-1-25,72,64,55,56,48,40,88,55,23,30.01,29.89,29.74,6,6,6,21,14,30,0.00,3,,209
2013-1-26,82,64,47,50,45,41,87,48,17,30.03,29.97,29.89,6,5,4,12,6,,0.00,,,296
2013-1-27,87,74,61,61,54,50,60,42,25,29.99,29.93,29.86,6,6,6,20,7,24,0.00,,,353
2013-1-28,97,84,72,68,60,55,62,44,24,30.01,29.95,29.89,6,6,6,15,8,,0.00,6,,323
2013-1-29,95,80,66,75,65,59,89,56,31,30.04,29.96,29.89,6,5,3,16,5,,0.00,5,,300
2013-1-30,95,81,67,68,63,55,88,53,24,29.92,29.87,29.80,6,6,6,12,8,,0.00,1,,166
2013-1-31,90,78,66,72,67,64,94,68,42,29.87,29.81,29.74,6,5,3,14,5,,0.00,7,Fog,139